Shawinigan-Sud, Canada
Current Conditions -  °F | °C
As of 7:00 AM on Friday 21 Nov 2014 (Local Time) from CYRQ Reporting Station
Clear Clear  
Wind Chill: 16°   Ceiling: Unl
Heat Index: 16°   Visibility: 9mi
Dew Point:   Wind: 3mph
Humidity: 73%   Direction: 310°NW
Pressure: 29.97"   Gusts: NA
Location:  46.53°N, 72.75°W
Report Text: CYRQ 211200Z AUTO 31003KT 9SM CLR M09/M13 A2997 RMK SLP153
Loading
Personal Weather Stations






























Interactive Weather Map New forecast layout! Learn more

10-Day Weather Forecast

Advertisements
Track Severe Weather on mobile